createdAt,value
2018-01-14T00:00:05.202Z,58.20
2018-01-14T00:02:32.425Z,58.40
2018-01-14T00:04:58.904Z,58.30
2018-01-14T00:07:26.156Z,58.40
2018-01-14T00:09:53.352Z,58.30
2018-01-14T00:12:19.879Z,58.30
2018-01-14T00:14:46.297Z,58.00
2018-01-14T00:17:12.764Z,57.90
2018-01-14T00:19:39.233Z,58.30
2018-01-14T00:22:05.641Z,58.80
2018-01-14T00:24:32.131Z,59.10
2018-01-14T00:26:59.292Z,59.50
2018-01-14T00:29:26.517Z,59.70
2018-01-14T00:31:53.705Z,59.00
2018-01-14T00:34:20.151Z,59.00
2018-01-14T00:36:46.573Z,59.00
2018-01-14T00:39:13.058Z,58.80
2018-01-14T00:41:40.257Z,59.40
2018-01-14T00:44:06.708Z,59.40
2018-01-14T00:46:33.181Z,59.40
2018-01-14T00:48:59.574Z,59.70
2018-01-14T00:51:26.011Z,60.30
2018-01-14T00:53:52.432Z,60.20
2018-01-14T00:56:18.877Z,60.40
2018-01-14T00:58:45.329Z,60.40
2018-01-14T01:01:11.740Z,60.30
2018-01-14T01:03:38.151Z,60.00
2018-01-14T01:06:04.572Z,59.90
2018-01-14T01:08:31.025Z,59.80
2018-01-14T01:10:57.498Z,59.80
2018-01-14T01:13:23.945Z,59.80
2018-01-14T01:15:50.539Z,59.70
2018-01-14T01:18:16.952Z,59.90
2018-01-14T01:20:43.357Z,59.60
2018-01-14T01:23:10.565Z,60.00
2018-01-14T01:25:37.028Z,59.20
2018-01-14T01:28:04.208Z,59.70
2018-01-14T01:30:30.676Z,59.70
2018-01-14T01:32:57.097Z,59.70
2018-01-14T01:35:23.560Z,59.70
2018-01-14T01:37:49.984Z,60.10
2018-01-14T01:40:17.221Z,59.90
2018-01-14T01:42:43.645Z,59.90
2018-01-14T01:45:10.085Z,59.90
2018-01-14T01:47:36.534Z,60.40
2018-01-14T01:50:02.940Z,60.40
2018-01-14T01:52:29.352Z,60.60
2018-01-14T01:54:55.781Z,60.50
2018-01-14T01:57:22.256Z,60.10
2018-01-14T01:59:48.697Z,60.20
2018-01-14T02:02:15.116Z,60.60
2018-01-14T02:04:41.554Z,60.60
2018-01-14T02:07:07.983Z,60.70
2018-01-14T02:09:34.431Z,60.60
2018-01-14T02:12:00.869Z,60.70
2018-01-14T02:14:27.266Z,60.90
2018-01-14T02:16:53.696Z,60.70
2018-01-14T02:19:20.464Z,60.70
2018-01-14T02:21:46.896Z,60.80
2018-01-14T02:24:13.309Z,60.50
2018-01-14T02:26:40.052Z,60.70
2018-01-14T02:29:06.481Z,60.90
2018-01-14T02:31:32.898Z,60.70
2018-01-14T02:33:59.336Z,61.90
2018-01-14T02:36:25.776Z,61.20
2018-01-14T02:38:52.213Z,61.20
2018-01-14T02:41:18.653Z,60.90
2018-01-14T02:43:45.065Z,60.70
2018-01-14T02:46:11.824Z,60.80
2018-01-14T02:48:38.269Z,60.70
2018-01-14T02:51:04.713Z,61.10
2018-01-14T02:53:31.153Z,61.50
2018-01-14T02:55:57.605Z,60.80
2018-01-14T02:58:24.171Z,60.60
2018-01-14T03:00:50.669Z,60.90
2018-01-14T03:03:17.216Z,61.00
2018-01-14T03:05:43.632Z,60.90
2018-01-14T03:08:10.054Z,61.00
2018-01-14T03:10:36.482Z,61.90
2018-01-14T03:13:02.927Z,61.00
2018-01-14T03:15:29.372Z,60.50
2018-01-14T03:17:55.836Z,60.70
2018-01-14T03:20:22.270Z,60.40
2018-01-14T03:22:48.766Z,60.70
2018-01-14T03:25:15.237Z,60.60
2018-01-14T03:27:41.685Z,60.90
2018-01-14T03:30:08.101Z,61.00
2018-01-14T03:32:34.545Z,61.10
2018-01-14T03:35:00.961Z,60.50
2018-01-14T03:37:27.372Z,60.40
2018-01-14T03:39:53.781Z,60.20
2018-01-14T03:42:20.228Z,60.10
2018-01-14T03:44:47.392Z,60.40
2018-01-14T03:47:14.708Z,60.90
2018-01-14T03:49:41.108Z,60.90
2018-01-14T03:52:07.545Z,61.00
2018-01-14T03:54:33.977Z,60.90
2018-01-14T03:57:00.409Z,60.90
2018-01-14T03:59:26.875Z,61.00
2018-01-14T04:01:53.306Z,61.40
2018-01-14T04:04:19.749Z,61.50
2018-01-14T04:06:46.194Z,61.60
2018-01-14T04:09:13.397Z,61.60
2018-01-14T04:11:39.805Z,61.60
2018-01-14T04:14:06.344Z,61.70
2018-01-14T04:16:32.794Z,61.80
2018-01-14T04:18:59.224Z,61.80
2018-01-14T04:21:25.648Z,61.60
2018-01-14T04:23:52.064Z,61.60
2018-01-14T04:26:19.216Z,61.50
2018-01-14T04:28:45.628Z,61.60
2018-01-14T04:31:12.804Z,61.20
2018-01-14T04:33:39.212Z,61.20
2018-01-14T04:36:05.644Z,61.50
2018-01-14T04:38:32.224Z,61.30
2018-01-14T04:40:58.636Z,61.00
2018-01-14T04:43:25.045Z,61.20
2018-01-14T04:45:51.488Z,61.40
2018-01-14T04:48:18.657Z,61.40
2018-01-14T04:50:45.092Z,61.50
2018-01-14T04:53:11.620Z,61.50
2018-01-14T04:55:38.032Z,61.70
2018-01-14T04:58:05.185Z,61.50
2018-01-14T05:00:31.731Z,61.40
2018-01-14T05:02:58.176Z,61.50
2018-01-14T05:05:24.616Z,61.60
2018-01-14T05:07:51.088Z,61.80
2018-01-14T05:10:17.505Z,61.90
2018-01-14T05:12:43.941Z,62.10
2018-01-14T05:15:10.365Z,61.80
2018-01-14T05:17:36.973Z,61.80
2018-01-14T05:20:03.392Z,61.50
2018-01-14T05:22:29.805Z,61.40
2018-01-14T05:24:56.253Z,61.50
2018-01-14T05:27:22.669Z,61.60
2018-01-14T05:29:49.113Z,61.60
2018-01-14T05:32:16.248Z,61.70
2018-01-14T05:34:42.668Z,61.60
2018-01-14T05:37:09.109Z,61.40
2018-01-14T05:39:35.536Z,61.40
2018-01-14T05:42:02.012Z,61.80
2018-01-14T05:44:29.168Z,61.70
2018-01-14T05:46:55.648Z,61.60
2018-01-14T05:49:22.056Z,61.60
2018-01-14T05:51:48.476Z,61.80
2018-01-14T05:54:14.930Z,61.60
2018-01-14T05:56:41.372Z,62.00
2018-01-14T05:59:07.793Z,62.00
2018-01-14T06:01:34.208Z,62.00
2018-01-14T06:04:00.613Z,62.00
2018-01-14T06:06:27.256Z,62.00
2018-01-14T06:08:53.664Z,61.80
2018-01-14T06:11:20.058Z,61.90
2018-01-14T06:13:46.500Z,61.80
2018-01-14T06:16:12.937Z,62.10
2018-01-14T06:18:39.370Z,62.00
2018-01-14T06:21:05.778Z,62.00
2018-01-14T06:23:32.259Z,62.00
2018-01-14T06:25:58.736Z,61.90
2018-01-14T06:28:25.181Z,62.00
2018-01-14T06:30:51.644Z,62.00
2018-01-14T06:33:18.066Z,61.20
2018-01-14T06:35:44.524Z,60.30
2018-01-14T06:38:10.925Z,60.00
2018-01-14T06:40:37.434Z,60.50
2018-01-14T06:43:03.868Z,60.90
2018-01-14T06:45:30.321Z,61.10
2018-01-14T06:47:56.740Z,61.10
2018-01-14T06:50:23.225Z,61.40
2018-01-14T06:52:49.642Z,61.80
2018-01-14T06:55:16.057Z,62.10
2018-01-14T06:57:42.485Z,62.10
2018-01-14T07:00:08.909Z,62.10
2018-01-14T07:02:35.374Z,62.00
2018-01-14T07:05:01.804Z,62.00
2018-01-14T07:07:28.239Z,61.90
2018-01-14T07:09:54.646Z,61.60
2018-01-14T07:12:21.077Z,61.70
2018-01-14T07:14:47.547Z,61.50
2018-01-14T07:17:13.957Z,61.50
2018-01-14T07:19:41.205Z,61.10
2018-01-14T07:22:07.616Z,61.20
2018-01-14T07:24:35.079Z,60.90
2018-01-14T07:27:01.528Z,61.30
2018-01-14T07:29:27.952Z,61.10
2018-01-14T07:31:54.461Z,60.50
2018-01-14T07:34:20.881Z,59.60
2018-01-14T07:36:47.320Z,59.30
2018-01-14T07:39:13.736Z,59.30
2018-01-14T07:41:40.872Z,60.00
2018-01-14T07:44:07.301Z,60.00
2018-01-14T07:46:33.715Z,60.00
2018-01-14T07:49:00.276Z,59.60
2018-01-14T07:51:27.448Z,58.60
2018-01-14T07:53:53.874Z,58.60
2018-01-14T07:56:21.069Z,58.70
2018-01-14T07:58:47.536Z,58.70
2018-01-14T08:01:14.010Z,58.10
2018-01-14T08:03:40.461Z,57.60
2018-01-14T08:06:06.900Z,57.80
2018-01-14T08:08:33.326Z,57.40
2018-01-14T08:10:59.788Z,57.50
2018-01-14T08:13:26.252Z,56.80
2018-01-14T08:15:52.716Z,56.60
2018-01-14T08:18:19.160Z,57.30
2018-01-14T08:20:45.596Z,57.60
2018-01-14T08:23:12.028Z,57.30
2018-01-14T08:25:39.193Z,57.30
2018-01-14T08:28:05.657Z,57.20
2018-01-14T08:30:32.884Z,56.40
2018-01-14T08:32:59.344Z,56.30
2018-01-14T08:35:25.794Z,56.40
2018-01-14T08:37:52.968Z,56.30
2018-01-14T08:40:19.393Z,56.20
2018-01-14T08:42:45.877Z,55.90
2018-01-14T08:45:12.341Z,56.10
2018-01-14T08:47:38.884Z,56.70
2018-01-14T08:50:06.081Z,55.40
2018-01-14T08:52:33.285Z,55.70
2018-01-14T08:54:59.775Z,55.80
2018-01-14T08:57:26.252Z,55.40
2018-01-14T08:59:53.432Z,56.20
2018-01-14T09:02:19.906Z,56.20
2018-01-14T09:04:46.323Z,54.80
2018-01-14T09:07:12.803Z,53.90
2018-01-14T09:09:39.266Z,54.30
2018-01-14T09:12:05.703Z,55.00
2018-01-14T09:14:32.191Z,54.80
2018-01-14T09:16:58.677Z,55.40
2018-01-14T09:19:25.114Z,55.10
2018-01-14T09:21:51.599Z,55.30
2018-01-14T09:24:18.098Z,55.70
2018-01-14T09:26:44.586Z,55.00
2018-01-14T09:29:11.045Z,54.50
2018-01-14T09:31:37.505Z,54.30
2018-01-14T09:34:03.957Z,53.80
2018-01-14T09:36:30.430Z,54.20
2018-01-14T09:38:56.885Z,54.00
2018-01-14T09:41:23.331Z,53.90
2018-01-14T09:43:49.789Z,53.80
2018-01-14T09:46:16.955Z,54.40
2018-01-14T09:48:44.120Z,54.40
2018-01-14T09:51:10.563Z,54.30
2018-01-14T09:53:36.969Z,53.70
2018-01-14T09:56:03.403Z,53.60
2018-01-14T09:58:31.557Z,53.40
2018-01-14T10:00:58.020Z,53.40
2018-01-14T10:03:24.504Z,54.00
2018-01-14T10:05:50.940Z,53.40
2018-01-14T10:08:17.397Z,53.50
2018-01-14T10:10:44.605Z,53.50
2018-01-14T10:13:11.057Z,53.50
2018-01-14T10:15:37.522Z,53.50
2018-01-14T10:18:03.951Z,53.50
2018-01-14T10:20:30.455Z,53.20
2018-01-14T10:22:57.641Z,53.70
2018-01-14T10:25:24.841Z,53.70
2018-01-14T10:27:51.265Z,53.70
2018-01-14T10:30:17.701Z,53.80
2018-01-14T10:32:44.150Z,53.30
2018-01-14T10:35:10.612Z,53.60
2018-01-14T10:37:37.090Z,53.30
2018-01-14T10:40:03.560Z,52.80
2018-01-14T10:42:30.034Z,53.10
2018-01-14T10:44:56.457Z,53.50
2018-01-14T10:47:23.672Z,53.30
2018-01-14T10:49:50.875Z,53.30
2018-01-14T10:52:17.324Z,53.20
2018-01-14T10:54:43.768Z,53.30
2018-01-14T10:57:10.201Z,52.80
2018-01-14T10:59:37.445Z,52.10
2018-01-14T11:02:03.985Z,52.10
2018-01-14T11:04:30.423Z,52.20
2018-01-14T11:06:56.877Z,51.50
2018-01-14T11:09:24.093Z,51.80
2018-01-14T11:11:50.525Z,51.80
2018-01-14T11:14:16.964Z,52.60
2018-01-14T11:16:43.428Z,52.50
2018-01-14T11:19:10.625Z,51.50
2018-01-14T11:21:37.036Z,51.50
2018-01-14T11:24:04.257Z,52.60
2018-01-14T11:26:30.732Z,52.60
2018-01-14T11:28:57.235Z,52.90
2018-01-14T11:31:23.673Z,52.60
2018-01-14T11:33:50.129Z,51.60
2018-01-14T11:36:16.558Z,51.70
2018-01-14T11:38:43.748Z,51.70
2018-01-14T11:41:10.233Z,51.70
2018-01-14T11:43:37.420Z,51.30
2018-01-14T11:46:03.861Z,51.30
2018-01-14T11:48:30.330Z,51.60
2018-01-14T11:50:56.805Z,51.40
2018-01-14T11:53:23.239Z,50.20
2018-01-14T11:55:49.669Z,50.60
2018-01-14T11:58:16.108Z,50.70
2018-01-14T12:00:42.541Z,50.90
2018-01-14T12:03:09.307Z,50.50
2018-01-14T12:05:35.729Z,49.70
2018-01-14T12:08:02.167Z,50.10
2018-01-14T12:10:28.619Z,50.10
2018-01-14T12:12:55.057Z,50.50
2018-01-14T12:15:21.548Z,50.90
2018-01-14T12:17:47.988Z,50.20
2018-01-14T12:20:14.436Z,51.40
2018-01-14T12:22:40.872Z,50.20
2018-01-14T12:25:07.260Z,50.10
2018-01-14T12:27:33.713Z,50.10
2018-01-14T12:30:00.129Z,50.60
2018-01-14T12:32:34.493Z,50.10
2018-01-14T12:35:00.901Z,50.80
2018-01-14T12:37:27.520Z,50.40
2018-01-14T12:39:54.709Z,50.20
2018-01-14T12:42:21.137Z,50.10
2018-01-14T12:44:47.569Z,50.20
2018-01-14T12:47:14.049Z,50.20
2018-01-14T12:49:41.304Z,50.10
2018-01-14T12:52:08.496Z,50.80
2018-01-14T12:54:34.963Z,50.80
2018-01-14T12:57:01.529Z,50.40
2018-01-14T12:59:28.715Z,51.10
2018-01-14T13:01:55.160Z,51.00
2018-01-14T13:04:21.703Z,50.10
2018-01-14T13:06:48.140Z,50.60
2018-01-14T13:09:14.584Z,50.90
2018-01-14T13:11:41.131Z,51.20
2018-01-14T13:14:07.743Z,51.20
2018-01-14T13:16:34.186Z,51.60
2018-01-14T13:19:00.791Z,50.90
2018-01-14T13:21:27.257Z,51.20
2018-01-14T13:23:53.770Z,50.80
2018-01-14T13:26:20.293Z,50.60
2018-01-14T13:28:46.803Z,50.70
2018-01-14T13:31:13.302Z,50.90
2018-01-14T13:33:39.748Z,51.10
2018-01-14T13:36:06.201Z,51.20
2018-01-14T13:38:32.637Z,51.10
2018-01-14T13:40:59.064Z,51.10
2018-01-14T13:43:26.294Z,51.30
2018-01-14T13:45:52.756Z,51.40
2018-01-14T13:48:19.916Z,50.80
2018-01-14T13:50:46.331Z,50.80
2018-01-14T13:53:13.531Z,51.20
2018-01-14T13:55:40.061Z,51.00
2018-01-14T13:58:06.503Z,51.40
2018-01-14T14:00:32.964Z,51.40
2018-01-14T14:03:00.154Z,51.20
2018-01-14T14:05:26.606Z,51.20
2018-01-14T14:07:53.149Z,51.50
2018-01-14T14:10:19.737Z,51.60
2018-01-14T14:12:46.229Z,51.70
2018-01-14T14:15:13.467Z,51.60
2018-01-14T14:17:39.924Z,51.50
2018-01-14T14:20:06.351Z,51.10
2018-01-14T14:22:32.783Z,51.10
2018-01-14T14:24:59.252Z,51.30
2018-01-14T14:27:26.410Z,50.80
2018-01-14T14:29:52.864Z,51.50
2018-01-14T14:32:19.300Z,51.00
2018-01-14T14:34:46.074Z,51.70
2018-01-14T14:37:12.520Z,51.80
2018-01-14T14:39:38.945Z,51.60
2018-01-14T14:42:05.395Z,52.00
2018-01-14T14:44:31.875Z,51.90
2018-01-14T14:46:58.309Z,52.10
2018-01-14T14:49:24.747Z,52.30
2018-01-14T14:51:51.200Z,52.20
2018-01-14T14:54:17.624Z,52.10
2018-01-14T14:56:44.096Z,51.80
2018-01-14T14:59:10.544Z,52.00
2018-01-14T15:01:37.733Z,52.10
2018-01-14T15:04:04.198Z,52.10
2018-01-14T15:06:30.667Z,52.30
2018-01-14T15:08:57.191Z,52.50
2018-01-14T15:11:24.498Z,52.40
2018-01-14T15:13:50.984Z,52.30
2018-01-14T15:16:18.191Z,52.20
2018-01-14T15:18:44.605Z,52.10
2018-01-14T15:21:12.200Z,52.60
2018-01-14T15:23:38.641Z,52.30
2018-01-14T15:26:05.950Z,52.60
2018-01-14T15:28:32.419Z,52.60
2018-01-14T15:30:58.849Z,52.70
2018-01-14T15:33:25.322Z,52.70
2018-01-14T15:35:51.800Z,52.80
2018-01-14T15:38:18.234Z,53.10
2018-01-14T15:40:44.721Z,53.10
2018-01-14T15:43:11.888Z,53.10
2018-01-14T15:45:38.393Z,53.00
2018-01-14T15:48:05.589Z,53.30
2018-01-14T15:50:32.250Z,53.30
2018-01-14T15:52:59.483Z,53.50
2018-01-14T15:55:25.975Z,53.40
2018-01-14T15:57:52.540Z,53.30
2018-01-14T16:00:18.982Z,53.30
2018-01-14T16:02:45.509Z,53.00
2018-01-14T16:05:11.979Z,53.00
2018-01-14T16:07:38.412Z,53.00
2018-01-14T16:10:04.908Z,53.30
2018-01-14T16:12:31.329Z,53.10
2018-01-14T16:14:57.833Z,53.40
2018-01-14T16:17:24.288Z,53.40
2018-01-14T16:19:50.774Z,54.30
2018-01-14T16:22:17.252Z,53.60
2018-01-14T16:24:44.517Z,54.10
2018-01-14T16:27:10.962Z,53.40
2018-01-14T16:29:37.445Z,53.70
2018-01-14T16:32:03.933Z,53.80
2018-01-14T16:34:30.396Z,54.50
2018-01-14T16:36:56.887Z,54.10
2018-01-14T16:39:23.337Z,53.80
2018-01-14T16:41:49.985Z,54.00
2018-01-14T16:44:16.470Z,53.90
2018-01-14T16:46:43.681Z,53.90
2018-01-14T16:49:10.202Z,53.90
2018-01-14T16:51:36.649Z,54.20
2018-01-14T16:54:03.133Z,54.20
2018-01-14T16:56:29.597Z,53.70
2018-01-14T16:58:56.125Z,53.80
2018-01-14T17:01:22.666Z,53.80
2018-01-14T17:03:49.129Z,54.10
2018-01-14T17:06:15.599Z,53.80
2018-01-14T17:08:42.852Z,53.80
2018-01-14T17:11:09.363Z,53.70
2018-01-14T17:13:35.814Z,54.20
2018-01-14T17:16:02.311Z,55.00
2018-01-14T17:18:28.771Z,54.50
2018-01-14T17:20:55.348Z,54.70
2018-01-14T17:23:21.795Z,54.10
2018-01-14T17:25:48.236Z,54.00
2018-01-14T17:28:14.760Z,54.00
2018-01-14T17:30:41.192Z,54.00
2018-01-14T17:33:07.658Z,54.30
2018-01-14T17:35:34.102Z,54.70
2018-01-14T17:38:00.618Z,54.70
2018-01-14T17:40:27.076Z,55.00
2018-01-14T17:42:54.313Z,55.10
2018-01-14T17:45:20.824Z,55.00
2018-01-14T17:47:47.310Z,55.00
2018-01-14T17:50:14.696Z,54.50
2018-01-14T17:52:41.046Z,55.20
2018-01-14T17:55:07.476Z,54.50
2018-01-14T17:57:33.939Z,54.70
2018-01-14T18:00:01.369Z,55.30
2018-01-14T18:02:27.830Z,55.20
2018-01-14T18:04:54.267Z,55.20
2018-01-14T18:07:21.528Z,55.30
2018-01-14T18:09:47.989Z,55.20
2018-01-14T18:12:14.449Z,55.50
2018-01-14T18:14:40.909Z,56.00
2018-01-14T18:17:14.343Z,56.20
2018-01-14T18:19:40.827Z,56.90
2018-01-14T18:22:07.256Z,56.70
2018-01-14T18:24:33.698Z,56.20
2018-01-14T18:27:00.180Z,56.00
2018-01-14T18:29:26.616Z,56.00
2018-01-14T18:31:53.578Z,56.00
2018-01-14T18:34:20.081Z,56.00
2018-01-14T18:36:46.537Z,56.40
2018-01-14T18:39:12.964Z,56.50
2018-01-14T18:41:39.431Z,56.80
2018-01-14T18:44:05.858Z,56.90
2018-01-14T18:46:32.435Z,56.60
2018-01-14T18:48:59.655Z,56.60
2018-01-14T18:51:26.228Z,56.60
2018-01-14T18:53:52.776Z,56.40
2018-01-14T18:56:19.312Z,56.80
2018-01-14T18:58:45.899Z,57.20
2018-01-14T19:01:12.431Z,57.50
2018-01-14T19:03:38.992Z,57.60
2018-01-14T19:06:06.227Z,57.40
2018-01-14T19:08:32.722Z,57.40
2018-01-14T19:10:59.253Z,57.30
2018-01-14T19:13:25.792Z,57.30
2018-01-14T19:15:52.340Z,57.70
2018-01-14T19:18:19.763Z,57.50
2018-01-14T19:20:46.442Z,57.40
2018-01-14T19:23:13.189Z,57.80
2018-01-14T19:25:39.772Z,57.80
2018-01-14T19:28:06.374Z,57.70
2018-01-14T19:30:33.713Z,57.80
2018-01-14T19:33:00.384Z,57.70
2018-01-14T19:35:26.986Z,57.70
2018-01-14T19:37:54.536Z,57.80
2018-01-14T19:40:22.004Z,57.70
2018-01-14T19:42:48.608Z,57.70
2018-01-14T19:45:15.272Z,57.70
2018-01-14T19:47:42.012Z,57.60
2018-01-14T19:50:09.417Z,57.60
2018-01-14T19:52:36.191Z,57.60
2018-01-14T19:55:03.106Z,57.60
2018-01-14T19:57:29.943Z,57.90
2018-01-14T19:59:56.751Z,58.20
2018-01-14T20:02:24.265Z,58.50
2018-01-14T20:04:50.952Z,58.50
2018-01-14T20:07:17.774Z,58.60
2018-01-14T20:09:44.643Z,58.50
2018-01-14T20:12:11.559Z,58.80
2018-01-14T20:14:39.069Z,58.60
2018-01-14T20:17:05.908Z,58.10
2018-01-14T20:19:32.700Z,57.90
2018-01-14T20:21:59.705Z,58.00
2018-01-14T20:24:26.438Z,58.20
2018-01-14T20:26:53.237Z,58.10
2018-01-14T20:29:20.084Z,58.30
2018-01-14T20:31:46.921Z,58.30
2018-01-14T20:34:14.438Z,58.50
2018-01-14T20:36:41.510Z,58.50
2018-01-14T20:39:08.969Z,59.20
2018-01-14T20:41:35.732Z,58.80
2018-01-14T20:44:03.287Z,59.00
2018-01-14T20:46:30.068Z,59.00
2018-01-14T20:48:56.873Z,59.10
2018-01-14T20:51:24.103Z,59.30
2018-01-14T20:53:50.668Z,59.30
2018-01-14T20:56:17.962Z,59.60
2018-01-14T20:58:44.431Z,59.40
2018-01-14T21:01:10.989Z,59.60
2018-01-14T21:03:37.449Z,59.60
2018-01-14T21:06:03.895Z,59.90
2018-01-14T21:08:30.396Z,59.70
2018-01-14T21:10:56.968Z,59.70
2018-01-14T21:13:23.433Z,59.70
2018-01-14T21:15:49.896Z,59.90
2018-01-14T21:18:17.110Z,59.90
2018-01-14T21:20:43.647Z,59.90
2018-01-14T21:23:10.111Z,59.90
2018-01-14T21:25:36.531Z,59.80
2018-01-14T21:28:02.982Z,60.10
2018-01-14T21:30:29.515Z,60.30
2018-01-14T21:32:55.970Z,60.50
2018-01-14T21:35:23.220Z,60.80
2018-01-14T21:37:49.702Z,60.70
2018-01-14T21:40:16.148Z,61.00
2018-01-14T21:42:42.625Z,61.00
2018-01-14T21:45:09.087Z,61.20
2018-01-14T21:47:35.544Z,61.30
2018-01-14T21:50:02.028Z,61.20
2018-01-14T21:52:28.536Z,61.30
2018-01-14T21:54:54.958Z,61.30
2018-01-14T21:57:21.393Z,61.30
2018-01-14T21:59:47.966Z,61.20
2018-01-14T22:02:15.199Z,61.20
2018-01-14T22:04:41.633Z,61.20
2018-01-14T22:07:08.107Z,61.50
2018-01-14T22:09:34.636Z,61.50
2018-01-14T22:12:01.081Z,61.50
2018-01-14T22:14:27.537Z,61.80
2018-01-14T22:16:54.046Z,62.00
2018-01-14T22:19:20.510Z,61.90
2018-01-14T22:21:46.944Z,62.10
2018-01-14T22:24:13.477Z,62.10
2018-01-14T22:26:40.620Z,61.80
2018-01-14T22:29:07.069Z,61.70
2018-01-14T22:31:34.375Z,61.40
2018-01-14T22:34:00.837Z,61.50
2018-01-14T22:36:27.304Z,61.30
2018-01-14T22:38:54.507Z,61.20
2018-01-14T22:41:20.956Z,61.20
2018-01-14T22:43:47.386Z,61.20
2018-01-14T22:46:13.846Z,61.20
2018-01-14T22:48:40.281Z,61.20
2018-01-14T22:51:06.729Z,61.20
2018-01-14T22:53:33.155Z,61.30
2018-01-14T22:55:59.588Z,61.00
2018-01-14T22:58:26.060Z,61.00
2018-01-14T23:00:52.575Z,61.30
2018-01-14T23:03:19.721Z,61.20
2018-01-14T23:05:46.869Z,61.20
2018-01-14T23:08:14.077Z,61.40
2018-01-14T23:10:40.575Z,61.30
2018-01-14T23:13:07.033Z,61.40
2018-01-14T23:15:33.459Z,61.50
2018-01-14T23:17:59.903Z,61.50
2018-01-14T23:20:26.336Z,61.00
2018-01-14T23:22:52.828Z,61.70
2018-01-14T23:25:19.279Z,61.20
2018-01-14T23:27:45.714Z,61.00
2018-01-14T23:30:12.213Z,61.20
2018-01-14T23:32:38.724Z,61.00
2018-01-14T23:35:05.442Z,61.70
2018-01-14T23:37:31.982Z,61.00
2018-01-14T23:39:58.438Z,61.00
2018-01-14T23:42:24.916Z,61.20
2018-01-14T23:44:51.366Z,61.30
2018-01-14T23:47:17.844Z,60.90
2018-01-14T23:49:44.297Z,61.20
2018-01-14T23:52:11.466Z,61.60
2018-01-14T23:54:37.916Z,61.60
2018-01-14T23:57:04.564Z,61.80
2018-01-14T23:59:31.002Z,62.00
